Terminal Aerodrome Forecast
Issued by NWS Wilmington, OH

Current Version | Previous Version | Graphics & Text | Print | Product List | Glossary On
Versions: 1 2 3 4 5 6 7 8 9 10 11 12 13 14 15 16 17 18 19 20 21 22 23 24 25 26
000
FTUS41 KILN 160200 AAA
TAFILN
TAF AMD
KILN 160255Z 1603/1624 16009KT P6SM OVC025
      TEMPO 1603/1604 -SHRA
     FM160700 18011KT P6SM OVC015
      TEMPO 1608/1611 -SHRA
     FM161100 22012KT 5SM BR OVC012
     FM161600 23014G22KT P6SM VCSH OVC015
     FM162000 25014G22KT P6SM OVC015=

USA.gov is the U.S. government's official web portal to all federal, state and local government web resources and services.